MCF1BS LZIB-LZKZ
Flight info
| Callsign | MCF1BS |
|---|---|
| Flight time | 0h 42m |
| Altitude | 23000 |
| Route | NIT N190 TAKOS |
| Aircraft | A320/M-SDE3FGHIRWY/LB1 |
Departure
| Time | 2026-05-03 20:57 |
|---|---|
| Airport | M. R. Štefánik Airport (LZIB) |
Arrival
| Time | 2026-05-03 21:40 |
|---|---|
| Airport | Košice International Airport (LZKZ) |
| Time | Latitude | Longitude | Altitude | Speed | Heading |
|---|---|---|---|---|---|
| 2026-05-03 20:34 | 48.16947 | 17.20129 | 420 ft | 0 kts | 314° |
| 2026-05-03 20:49 | 48.16942 | 17.20137 | 420 ft | 4 kts | 316° |
| 2026-05-03 20:49 | 48.16921 | 17.20162 | 423 ft | 4 kts | 333° |
| 2026-05-03 20:49 | 48.16897 | 17.20172 | 428 ft | 4 kts | 12° |
| 2026-05-03 20:49 | 48.16883 | 17.20162 | 420 ft | 1 kts | 44° |
| 2026-05-03 20:50 | 48.16881 | 17.20159 | 421 ft | 0 kts | 44° |
| 2026-05-03 20:53 | 48.16883 | 17.20162 | 432 ft | 0 kts | 44° |
| 2026-05-03 20:53 | 48.16884 | 17.20164 | 432 ft | 1 kts | 44° |
| 2026-05-03 20:53 | 48.16910 | 17.20202 | 424 ft | 6 kts | 44° |
| 2026-05-03 20:53 | 48.16938 | 17.20242 | 427 ft | 5 kts | 44° |
| 2026-05-03 20:54 | 48.16961 | 17.20276 | 420 ft | 4 kts | 44° |
| 2026-05-03 20:54 | 48.17032 | 17.20378 | 431 ft | 9 kts | 44° |
| 2026-05-03 20:54 | 48.17073 | 17.20439 | 419 ft | 10 kts | 44° |
| 2026-05-03 20:55 | 48.17142 | 17.20539 | 428 ft | 13 kts | 43° |
| 2026-05-03 20:55 | 48.17218 | 17.20559 | 419 ft | 11 kts | 333° |
| 2026-05-03 20:55 | 48.17272 | 17.20486 | 427 ft | 10 kts | 315° |
| 2026-05-03 20:55 | 48.17319 | 17.20414 | 425 ft | 10 kts | 314° |
| 2026-05-03 20:56 | 48.17372 | 17.20340 | 429 ft | 14 kts | 318° |
| 2026-05-03 20:56 | 48.17458 | 17.20303 | 420 ft | 13 kts | 10° |
| 2026-05-03 20:56 | 48.17526 | 17.20373 | 425 ft | 12 kts | 55° |
| 2026-05-03 20:56 | 48.17518 | 17.20479 | 427 ft | 11 kts | 134° |
| 2026-05-03 20:57 | 48.17406 | 17.20651 | 426 ft | 52 kts | 134° |
| 2026-05-03 20:57 | 48.16990 | 17.21297 | 422 ft | 117 kts | 134° |
| 2026-05-03 20:57 | 48.16304 | 17.22360 | 496 ft | 160 kts | 134° |
| 2026-05-03 20:57 | 48.15555 | 17.23493 | 1207 ft | 156 kts | 135° |
| 2026-05-03 20:58 | 48.14796 | 17.24661 | 2028 ft | 153 kts | 140° |
| 2026-05-03 20:58 | 48.14036 | 17.25839 | 2587 ft | 166 kts | 140° |
| 2026-05-03 20:58 | 48.13179 | 17.27158 | 2924 ft | 188 kts | 140° |
| 2026-05-03 20:58 | 48.12231 | 17.28710 | 3294 ft | 217 kts | 129° |
| 2026-05-03 20:59 | 48.11809 | 17.31007 | 3692 ft | 255 kts | 90° |
| 2026-05-03 20:59 | 48.12216 | 17.33714 | 4316 ft | 274 kts | 74° |
| 2026-05-03 20:59 | 48.12899 | 17.36404 | 5236 ft | 279 kts | 70° |
| 2026-05-03 20:59 | 48.13669 | 17.39079 | 6185 ft | 282 kts | 69° |
| 2026-05-03 21:00 | 48.14456 | 17.41778 | 7102 ft | 284 kts | 69° |
| 2026-05-03 21:00 | 48.14719 | 17.42696 | 7409 ft | 284 kts | 69° |
| 2026-05-03 21:00 | 48.15985 | 17.47278 | 8904 ft | 288 kts | 70° |
| 2026-05-03 21:00 | 48.16729 | 17.50074 | 9804 ft | 291 kts | 70° |
| 2026-05-03 21:01 | 48.17482 | 17.52944 | 10410 ft | 305 kts | 70° |
| 2026-05-03 21:01 | 48.18268 | 17.56030 | 10679 ft | 329 kts | 71° |
| 2026-05-03 21:01 | 48.19048 | 17.59385 | 10885 ft | 352 kts | 72° |
| 2026-05-03 21:01 | 48.19836 | 17.62979 | 11047 ft | 375 kts | 73° |
| 2026-05-03 21:02 | 48.20658 | 17.66794 | 11305 ft | 392 kts | 72° |
| 2026-05-03 21:02 | 48.21505 | 17.70709 | 11880 ft | 398 kts | 73° |
| 2026-05-03 21:02 | 48.22373 | 17.74673 | 12527 ft | 402 kts | 72° |
| 2026-05-03 21:02 | 48.23257 | 17.78672 | 13171 ft | 405 kts | 72° |
| 2026-05-03 21:03 | 48.24146 | 17.82702 | 13784 ft | 409 kts | 72° |
| 2026-05-03 21:03 | 48.25040 | 17.86754 | 14424 ft | 410 kts | 72° |
| 2026-05-03 21:03 | 48.25934 | 17.90813 | 15029 ft | 411 kts | 72° |
| 2026-05-03 21:03 | 48.26834 | 17.94901 | 15575 ft | 414 kts | 72° |
| 2026-05-03 21:04 | 48.27739 | 17.99023 | 16094 ft | 417 kts | 72° |
| 2026-05-03 21:04 | 48.28646 | 18.03167 | 16620 ft | 420 kts | 72° |
| 2026-05-03 21:04 | 48.29513 | 18.07380 | 17120 ft | 424 kts | 74° |
| 2026-05-03 21:04 | 48.30268 | 18.11676 | 17632 ft | 427 kts | 76° |
| 2026-05-03 21:05 | 48.30942 | 18.16043 | 18118 ft | 431 kts | 77° |
| 2026-05-03 21:05 | 48.31569 | 18.20398 | 18558 ft | 434 kts | 77° |
| 2026-05-03 21:05 | 48.32202 | 18.24852 | 18975 ft | 437 kts | 77° |
| 2026-05-03 21:05 | 48.32851 | 18.29324 | 19405 ft | 439 kts | 77° |
| 2026-05-03 21:06 | 48.33525 | 18.33813 | 19826 ft | 442 kts | 76° |
| 2026-05-03 21:06 | 48.34223 | 18.38319 | 20264 ft | 443 kts | 76° |
| 2026-05-03 21:06 | 48.34930 | 18.42833 | 20689 ft | 445 kts | 76° |
| 2026-05-03 21:06 | 48.35640 | 18.47366 | 20956 ft | 446 kts | 76° |
| 2026-05-03 21:07 | 48.36346 | 18.51905 | 21213 ft | 447 kts | 76° |
| 2026-05-03 21:07 | 48.37050 | 18.56459 | 21479 ft | 448 kts | 76° |
| 2026-05-03 21:07 | 48.37752 | 18.61035 | 21744 ft | 450 kts | 76° |
| 2026-05-03 21:07 | 48.38449 | 18.65627 | 22002 ft | 451 kts | 76° |
| 2026-05-03 21:08 | 48.39144 | 18.70244 | 22267 ft | 453 kts | 76° |
| 2026-05-03 21:08 | 48.39840 | 18.74871 | 22537 ft | 455 kts | 76° |
| 2026-05-03 21:08 | 48.40537 | 18.79511 | 22809 ft | 456 kts | 76° |
| 2026-05-03 21:08 | 48.41242 | 18.84184 | 23075 ft | 458 kts | 76° |
| 2026-05-03 21:09 | 48.41949 | 18.88867 | 23163 ft | 463 kts | 76° |
| 2026-05-03 21:09 | 48.42661 | 18.93617 | 23162 ft | 465 kts | 76° |
| 2026-05-03 21:09 | 48.43370 | 18.98362 | 23168 ft | 465 kts | 76° |
| 2026-05-03 21:09 | 48.44078 | 19.03123 | 23168 ft | 465 kts | 76° |
| 2026-05-03 21:10 | 48.44780 | 19.07873 | 23173 ft | 465 kts | 76° |
| 2026-05-03 21:10 | 48.45479 | 19.12633 | 23164 ft | 465 kts | 77° |
| 2026-05-03 21:10 | 48.46115 | 19.17413 | 23173 ft | 466 kts | 78° |
| 2026-05-03 21:10 | 48.46686 | 19.22219 | 23166 ft | 466 kts | 79° |
| 2026-05-03 21:11 | 48.47214 | 19.27032 | 23166 ft | 466 kts | 79° |
| 2026-05-03 21:11 | 48.47729 | 19.31856 | 23165 ft | 466 kts | 79° |
| 2026-05-03 21:11 | 48.48250 | 19.36670 | 23165 ft | 466 kts | 79° |
| 2026-05-03 21:11 | 48.48785 | 19.41486 | 23168 ft | 465 kts | 79° |
| 2026-05-03 21:12 | 48.49332 | 19.46291 | 23171 ft | 465 kts | 79° |
| 2026-05-03 21:12 | 48.49696 | 19.49475 | 23172 ft | 465 kts | 79° |
| 2026-05-03 21:12 | 48.50245 | 19.54268 | 23179 ft | 464 kts | 79° |
| 2026-05-03 21:12 | 48.50795 | 19.59072 | 23172 ft | 464 kts | 79° |
| 2026-05-03 21:13 | 48.51340 | 19.63871 | 23174 ft | 464 kts | 79° |
| 2026-05-03 21:13 | 48.51881 | 19.68648 | 23146 ft | 456 kts | 79° |
| 2026-05-03 21:13 | 48.52398 | 19.73257 | 23026 ft | 435 kts | 79° |
| 2026-05-03 21:13 | 48.52888 | 19.77653 | 22885 ft | 411 kts | 79° |
| 2026-05-03 21:14 | 48.53342 | 19.81744 | 22694 ft | 383 kts | 79° |
| 2026-05-03 21:14 | 48.53773 | 19.85626 | 22081 ft | 369 kts | 79° |
| 2026-05-03 21:14 | 48.54194 | 19.89403 | 21352 ft | 361 kts | 79° |
| 2026-05-03 21:14 | 48.54605 | 19.93103 | 20572 ft | 355 kts | 79° |
| 2026-05-03 21:15 | 48.55011 | 19.96774 | 19973 ft | 354 kts | 79° |
| 2026-05-03 21:15 | 48.55412 | 20.00425 | 19558 ft | 351 kts | 79° |
| 2026-05-03 21:15 | 48.55808 | 20.04051 | 19139 ft | 349 kts | 79° |
| 2026-05-03 21:15 | 48.56200 | 20.07653 | 18719 ft | 347 kts | 79° |
| 2026-05-03 21:16 | 48.56589 | 20.11234 | 18284 ft | 345 kts | 79° |
| 2026-05-03 21:16 | 48.56975 | 20.14799 | 17815 ft | 343 kts | 79° |
| 2026-05-03 21:16 | 48.57359 | 20.18346 | 17367 ft | 340 kts | 79° |
| 2026-05-03 21:16 | 48.57740 | 20.21860 | 16931 ft | 338 kts | 79° |
| 2026-05-03 21:17 | 48.58088 | 20.25361 | 16505 ft | 336 kts | 84° |
| 2026-05-03 21:17 | 48.58037 | 20.28872 | 16099 ft | 335 kts | 97° |
| 2026-05-03 21:17 | 48.57687 | 20.32325 | 15562 ft | 330 kts | 98° |
| 2026-05-03 21:17 | 48.57338 | 20.35735 | 14844 ft | 327 kts | 98° |
| 2026-05-03 21:18 | 48.56997 | 20.39099 | 14193 ft | 322 kts | 98° |
| 2026-05-03 21:18 | 48.56665 | 20.42368 | 13464 ft | 318 kts | 98° |
| 2026-05-03 21:18 | 48.56335 | 20.45645 | 12733 ft | 314 kts | 98° |
| 2026-05-03 21:18 | 48.56008 | 20.48883 | 11995 ft | 310 kts | 98° |
| 2026-05-03 21:19 | 48.55684 | 20.52086 | 11283 ft | 309 kts | 98° |
| 2026-05-03 21:19 | 48.55357 | 20.55292 | 10891 ft | 307 kts | 98° |
| 2026-05-03 21:19 | 48.55032 | 20.58459 | 10513 ft | 305 kts | 98° |
| 2026-05-03 21:19 | 48.54703 | 20.61620 | 10124 ft | 304 kts | 99° |
| 2026-05-03 21:20 | 48.54379 | 20.64739 | 9873 ft | 296 kts | 99° |
| 2026-05-03 21:20 | 48.54068 | 20.67753 | 9740 ft | 285 kts | 99° |
| 2026-05-03 21:20 | 48.53766 | 20.70673 | 9495 ft | 279 kts | 99° |
| 2026-05-03 21:20 | 48.53466 | 20.73550 | 9144 ft | 277 kts | 99° |
| 2026-05-03 21:21 | 48.53166 | 20.76411 | 8779 ft | 275 kts | 99° |
| 2026-05-03 21:21 | 48.52867 | 20.79258 | 8378 ft | 275 kts | 99° |
| 2026-05-03 21:21 | 48.52570 | 20.82098 | 7970 ft | 274 kts | 99° |
| 2026-05-03 21:21 | 48.52276 | 20.84919 | 7721 ft | 267 kts | 99° |
| 2026-05-03 21:22 | 48.51996 | 20.87634 | 7590 ft | 256 kts | 100° |
| 2026-05-03 21:22 | 48.51729 | 20.90199 | 7460 ft | 238 kts | 100° |
| 2026-05-03 21:22 | 48.51481 | 20.92567 | 7340 ft | 221 kts | 100° |
| 2026-05-03 21:22 | 48.51244 | 20.94793 | 7157 ft | 210 kts | 101° |
| 2026-05-03 21:23 | 48.51016 | 20.96926 | 6782 ft | 201 kts | 101° |
| 2026-05-03 21:23 | 48.50791 | 20.99009 | 6284 ft | 194 kts | 101° |
| 2026-05-03 21:23 | 48.50588 | 21.00917 | 6158 ft | 176 kts | 102° |
| 2026-05-03 21:23 | 48.50405 | 21.02654 | 6007 ft | 162 kts | 102° |
| 2026-05-03 21:24 | 48.50201 | 21.04292 | 5734 ft | 157 kts | 105° |
| 2026-05-03 21:24 | 48.49956 | 21.05895 | 5453 ft | 155 kts | 107° |
| 2026-05-03 21:24 | 48.49716 | 21.07433 | 5183 ft | 149 kts | 107° |
| 2026-05-03 21:24 | 48.49480 | 21.08952 | 4855 ft | 149 kts | 108° |
| 2026-05-03 21:25 | 48.49245 | 21.10465 | 4517 ft | 149 kts | 107° |
| 2026-05-03 21:25 | 48.49010 | 21.11984 | 4178 ft | 149 kts | 107° |
| 2026-05-03 21:25 | 48.48773 | 21.13514 | 3830 ft | 150 kts | 107° |
| 2026-05-03 21:25 | 48.48593 | 21.15059 | 3624 ft | 152 kts | 93° |
| 2026-05-03 21:26 | 48.48816 | 21.16627 | 3455 ft | 155 kts | 65° |
| 2026-05-03 21:26 | 48.49477 | 21.17895 | 3333 ft | 155 kts | 37° |
| 2026-05-03 21:26 | 48.50431 | 21.18589 | 3205 ft | 153 kts | 10° |
| 2026-05-03 21:26 | 48.51466 | 21.18946 | 3090 ft | 152 kts | 10° |
| 2026-05-03 21:27 | 48.52483 | 21.19300 | 2959 ft | 152 kts | 9° |
| 2026-05-03 21:27 | 48.53512 | 21.19657 | 2844 ft | 151 kts | 10° |
| 2026-05-03 21:27 | 48.54540 | 21.20015 | 2772 ft | 152 kts | 10° |
| 2026-05-03 21:27 | 48.55568 | 21.20372 | 2618 ft | 151 kts | 10° |
| 2026-05-03 21:28 | 48.56592 | 21.20728 | 2429 ft | 151 kts | 10° |
| 2026-05-03 21:28 | 48.57615 | 21.21085 | 2234 ft | 150 kts | 10° |
| 2026-05-03 21:28 | 48.58634 | 21.21439 | 2036 ft | 150 kts | 10° |
| 2026-05-03 21:28 | 48.59651 | 21.21794 | 1836 ft | 150 kts | 10° |
| 2026-05-03 21:29 | 48.60661 | 21.22146 | 1638 ft | 148 kts | 11° |
| 2026-05-03 21:29 | 48.61655 | 21.22492 | 1443 ft | 145 kts | 12° |
| 2026-05-03 21:29 | 48.62619 | 21.22829 | 1259 ft | 141 kts | 12° |
| 2026-05-03 21:29 | 48.63561 | 21.23158 | 1085 ft | 137 kts | 13° |
| 2026-05-03 21:30 | 48.64487 | 21.23484 | 894 ft | 136 kts | 13° |
| 2026-05-03 21:30 | 48.65395 | 21.23803 | 756 ft | 127 kts | 13° |
| 2026-05-03 21:30 | 48.66264 | 21.24113 | 846 ft | 145 kts | 13° |
| 2026-05-03 21:30 | 48.67325 | 21.24469 | 1345 ft | 164 kts | 12° |
| 2026-05-03 21:31 | 48.68526 | 21.24844 | 1805 ft | 188 kts | 10° |
| 2026-05-03 21:31 | 48.69911 | 21.25254 | 2282 ft | 217 kts | 11° |
| 2026-05-03 21:31 | 48.71413 | 21.25776 | 3236 ft | 225 kts | 12° |
| 2026-05-03 21:31 | 48.72930 | 21.26506 | 3972 ft | 234 kts | 30° |
| 2026-05-03 21:32 | 48.74127 | 21.28203 | 4396 ft | 239 kts | 61° |
| 2026-05-03 21:32 | 48.74590 | 21.30547 | 4492 ft | 231 kts | 94° |
| 2026-05-03 21:32 | 48.74169 | 21.32801 | 4508 ft | 222 kts | 128° |
| 2026-05-03 21:32 | 48.73026 | 21.34257 | 4508 ft | 215 kts | 162° |
| 2026-05-03 21:33 | 48.71594 | 21.34463 | 4513 ft | 211 kts | 190° |
| 2026-05-03 21:33 | 48.70156 | 21.33978 | 4511 ft | 212 kts | 196° |
| 2026-05-03 21:33 | 48.68735 | 21.33391 | 4511 ft | 212 kts | 196° |
| 2026-05-03 21:33 | 48.67313 | 21.32788 | 4510 ft | 212 kts | 197° |
| 2026-05-03 21:34 | 48.65883 | 21.32237 | 4506 ft | 212 kts | 192° |
| 2026-05-03 21:34 | 48.64399 | 21.31913 | 4504 ft | 213 kts | 187° |
| 2026-05-03 21:34 | 48.62943 | 21.31682 | 4508 ft | 214 kts | 186° |
| 2026-05-03 21:34 | 48.61441 | 21.31440 | 4516 ft | 226 kts | 186° |
| 2026-05-03 21:35 | 48.59840 | 21.31178 | 4508 ft | 234 kts | 186° |
| 2026-05-03 21:35 | 48.58212 | 21.30913 | 4510 ft | 236 kts | 186° |
| 2026-05-03 21:35 | 48.56579 | 21.30645 | 4513 ft | 236 kts | 186° |
| 2026-05-03 21:35 | 48.54943 | 21.30340 | 4509 ft | 236 kts | 190° |
| 2026-05-03 21:36 | 48.53381 | 21.29649 | 4506 ft | 229 kts | 202° |
| 2026-05-03 21:36 | 48.52077 | 21.28449 | 4503 ft | 217 kts | 227° |
| 2026-05-03 21:36 | 48.51424 | 21.26433 | 4405 ft | 217 kts | 260° |
| 2026-05-03 21:36 | 48.51615 | 21.24207 | 3952 ft | 219 kts | 295° |
| 2026-05-03 21:37 | 48.52526 | 21.22391 | 3692 ft | 213 kts | 311° |
| 2026-05-03 21:37 | 48.53644 | 21.21051 | 3582 ft | 199 kts | 330° |
| 2026-05-03 21:37 | 48.54915 | 21.20462 | 3373 ft | 190 kts | 351° |
| 2026-05-03 21:37 | 48.56243 | 21.20602 | 2919 ft | 193 kts | 11° |
| 2026-05-03 21:38 | 48.57544 | 21.21057 | 2524 ft | 191 kts | 11° |
| 2026-05-03 21:38 | 48.58865 | 21.21520 | 2165 ft | 197 kts | 11° |
| 2026-05-03 21:38 | 48.60193 | 21.21984 | 1776 ft | 192 kts | 11° |
| 2026-05-03 21:38 | 48.61436 | 21.22418 | 1515 ft | 173 kts | 12° |
| 2026-05-03 21:39 | 48.62555 | 21.22808 | 1267 ft | 157 kts | 12° |
| 2026-05-03 21:39 | 48.63575 | 21.23163 | 1055 ft | 145 kts | 12° |
| 2026-05-03 21:39 | 48.64532 | 21.23502 | 853 ft | 139 kts | 13° |
| 2026-05-03 21:39 | 48.65462 | 21.23827 | 756 ft | 129 kts | 13° |
| 2026-05-03 21:40 | 48.66160 | 21.24069 | 755 ft | 78 kts | 13° |
| 2026-05-03 21:40 | 48.66610 | 21.24226 | 759 ft | 59 kts | 13° |
| 2026-05-03 21:40 | 48.66959 | 21.24347 | 760 ft | 45 kts | 13° |
| 2026-05-03 21:40 | 48.67177 | 21.24423 | 759 ft | 15 kts | 6° |
| 2026-05-03 21:41 | 48.67245 | 21.24313 | 755 ft | 17 kts | 282° |
| 2026-05-03 21:41 | 48.67264 | 21.24192 | 754 ft | 7 kts | 283° |
| 2026-05-03 21:41 | 48.67275 | 21.24121 | 757 ft | 9 kts | 283° |
| 2026-05-03 21:41 | 48.67289 | 21.24031 | 757 ft | 8 kts | 283° |
| 2026-05-03 21:42 | 48.67301 | 21.23953 | 757 ft | 7 kts | 283° |
| 2026-05-03 21:42 | 48.67328 | 21.23902 | 753 ft | 6 kts | 327° |
| 2026-05-03 21:42 | 48.67338 | 21.23866 | 755 ft | 3 kts | 249° |
| 2026-05-03 21:42 | 48.67333 | 21.23855 | 754 ft | 0 kts | 234° |